Time;durP1;ratioP1;P1;durP2;ratioP2;P2;SDS_P1;SDS_P2;PMS_P1;PMS_P2;Temp;Humidity;BMP_temperature;BMP_pressure;BME280_temperature;BME280_humidity;BME280_pressure;Samples;Min_cycle;Max_cycle;Signal;HPM_P1;HPM_P2
2022/12/02 00:00:21;;;;;;;46.77;20.73;;;;;;;-2.71;95.86;101150.00;4210175;28;22641;-68
2022/12/02 00:02:48;;;;;;;50.27;22.27;;;;;;;-2.77;96.15;101154.47;4200334;28;20230;-69
2022/12/02 00:05:15;;;;;;;53.43;21.70;;;;;;;-2.67;96.03;101149.88;4200291;28;20489;-67
2022/12/02 00:07:41;;;;;;;51.17;22.13;;;;;;;-2.66;95.35;101148.97;4198878;28;20358;-68
2022/12/02 00:10:26;;;;;;;49.60;21.83;;;;;;;-2.66;95.79;101146.34;4201019;28;20231;-70
2022/12/02 00:12:53;;;;;;;58.03;22.50;;;;;;;-2.66;95.63;101146.34;4205367;28;20346;-67
2022/12/02 00:15:34;;;;;;;50.37;22.90;;;;;;;-2.69;95.53;101151.66;4206264;28;20220;-68
2022/12/02 00:18:01;;;;;;;53.40;23.50;;;;;;;-2.75;95.73;101149.22;4211495;28;21913;-69
2022/12/02 00:20:28;;;;;;;49.83;22.20;;;;;;;-2.75;96.28;101141.41;4206557;28;20232;-66
2022/12/02 00:22:54;;;;;;;53.37;22.67;;;;;;;-2.60;96.05;101154.00;4207134;28;20234;-67
2022/12/02 00:25:21;;;;;;;53.53;22.60;;;;;;;-2.57;95.51;101151.31;4215254;28;21258;-68
2022/12/02 00:27:47;;;;;;;49.13;22.20;;;;;;;-2.57;95.55;101153.06;4198932;28;20252;-68
2022/12/02 00:30:16;;;;;;;46.50;22.40;;;;;;;-2.58;95.28;101146.13;4207884;28;21804;-68
2022/12/02 00:32:42;;;;;;;52.33;21.87;;;;;;;-2.57;94.21;101143.50;4199921;28;20279;-68
2022/12/02 00:35:09;;;;;;;49.70;20.80;;;;;;;-2.74;94.79;101150.91;4208744;28;23021;-69
2022/12/02 00:37:35;;;;;;;47.03;19.30;;;;;;;-2.91;95.63;101147.94;4205619;28;20233;-67
2022/12/02 00:40:02;;;;;;;42.63;19.33;;;;;;;-2.92;95.43;101149.69;4209837;28;23753;-69
2022/12/02 00:42:29;;;;;;;46.17;19.33;;;;;;;-2.81;94.83;101149.38;4206551;28;20231;-68
2022/12/02 00:47:40;;;;;;;41.20;17.27;;;;;;;-2.92;95.17;101156.66;4206591;28;20611;-67
2022/12/02 00:50:07;;;;;;;41.60;18.30;;;;;;;-3.00;94.35;101154.22;4207979;28;22176;-67
2022/12/02 00:52:34;;;;;;;39.60;17.27;;;;;;;-3.01;94.59;101153.38;4212156;28;20268;-67
2022/12/02 00:55:01;;;;;;;37.97;17.93;;;;;;;-3.04;94.12;101152.63;4214673;28;20228;-67
2022/12/02 00:57:27;;;;;;;35.87;16.90;;;;;;;-3.06;94.63;101150.06;4215785;28;20497;-71
2022/12/02 00:59:54;;;;;;;38.30;17.77;;;;;;;-2.96;94.55;101150.66;4218687;28;20232;-68
2022/12/02 01:02:20;;;;;;;36.40;17.03;;;;;;;-3.04;94.13;101143.06;4214246;28;20235;-68
2022/12/02 01:04:47;;;;;;;39.77;17.23;;;;;;;-3.10;94.28;101152.78;4218761;28;25658;-68
2022/12/02 01:07:15;;;;;;;36.70;17.40;;;;;;;-3.11;94.22;101157.13;4213154;28;23221;-68
2022/12/02 01:09:42;;;;;;;40.40;17.73;;;;;;;-3.20;94.60;101154.78;4216915;28;20280;-67
2022/12/02 01:12:08;;;;;;;45.67;18.40;;;;;;;-3.21;95.14;101140.03;4227344;28;21912;-67
2022/12/02 01:14:35;;;;;;;40.80;17.20;;;;;;;-3.24;95.68;101145.31;4209413;28;20237;-68
2022/12/02 01:17:02;;;;;;;38.87;17.30;;;;;;;-3.18;95.75;101145.19;4206085;28;20321;-69
2022/12/02 01:19:28;;;;;;;44.40;17.97;;;;;;;-3.13;95.19;101148.50;4210707;28;20300;-67
2022/12/02 01:21:55;;;;;;;41.03;18.00;;;;;;;-3.15;95.03;101144.25;4208366;28;20244;-67
2022/12/02 01:24:22;;;;;;;40.50;16.37;;;;;;;-3.08;94.27;101141.44;4213081;28;20253;-68
2022/12/02 01:26:48;;;;;;;38.87;16.57;;;;;;;-3.17;94.44;101135.63;4216246;28;20540;-68
2022/12/02 01:29:15;;;;;;;35.13;16.73;;;;;;;-3.12;94.51;101129.38;4205143;28;20236;-70
2022/12/02 01:31:41;;;;;;;41.77;17.87;;;;;;;-3.10;94.21;101131.94;4202645;28;20234;-69
2022/12/02 01:34:08;;;;;;;40.80;16.93;;;;;;;-3.04;94.77;101127.44;4207955;28;20448;-69
2022/12/02 01:36:35;;;;;;;39.27;17.27;;;;;;;-3.09;93.93;101133.66;4194009;28;20282;-67
2022/12/02 01:39:02;;;;;;;38.23;16.90;;;;;;;-3.04;93.91;101130.03;4198152;28;20232;-66
2022/12/02 01:41:28;;;;;;;36.30;16.67;;;;;;;-3.09;94.08;101125.84;4200847;28;22374;-69
2022/12/02 01:43:55;;;;;;;38.30;16.50;;;;;;;-3.04;93.88;101124.00;4195979;28;20234;-68
2022/12/02 01:46:21;;;;;;;40.83;16.87;;;;;;;-3.12;93.82;101126.78;4199485;28;20311;-68
2022/12/02 01:48:48;;;;;;;36.63;16.43;;;;;;;-3.27;94.15;101122.84;4194511;28;21785;-68
2022/12/02 01:51:15;;;;;;;37.17;16.67;;;;;;;-3.18;94.83;101124.34;4202508;28;20241;-68
2022/12/02 01:53:42;;;;;;;38.27;16.83;;;;;;;-3.22;94.33;101122.72;4197149;28;20233;-69
2022/12/02 01:56:09;;;;;;;36.90;16.47;;;;;;;-3.22;93.64;101127.94;4205379;28;20454;-68
2022/12/02 01:58:36;;;;;;;35.47;16.07;;;;;;;-3.28;94.19;101123.75;4212191;28;20281;-68
2022/12/02 02:01:03;;;;;;;38.83;16.90;;;;;;;-3.24;94.82;101119.31;4209116;28;20318;-69
2022/12/02 02:03:29;;;;;;;39.67;17.30;;;;;;;-3.28;94.34;101117.66;4207801;28;22236;-66
2022/12/02 02:05:56;;;;;;;33.07;15.77;;;;;;;-3.25;94.75;101117.59;4229266;28;22942;-65
2022/12/02 02:08:22;;;;;;;38.03;16.90;;;;;;;-3.15;94.74;101116.47;4206064;28;20238;-67
2022/12/02 02:10:49;;;;;;;39.60;16.97;;;;;;;-3.07;93.67;101114.47;4211029;28;20243;-67
2022/12/02 02:13:16;;;;;;;33.80;15.40;;;;;;;-2.99;94.31;101120.34;4210313;28;22941;-66
2022/12/02 02:15:43;;;;;;;34.60;15.77;;;;;;;-3.01;94.04;101116.09;4210196;28;23028;-67
2022/12/02 02:18:10;;;;;;;38.40;16.00;;;;;;;-2.97;93.65;101118.56;4206662;28;20228;-72
2022/12/02 02:20:40;;;;;;;34.93;16.67;;;;;;;-2.98;92.92;101116.00;4208777;28;22524;-67
2022/12/02 02:23:07;;;;;;;33.40;16.03;;;;;;;-2.93;92.19;101111.50;4206374;28;20699;-67
2022/12/02 02:25:38;;;;;;;33.47;16.30;;;;;;;-3.08;92.67;101122.34;4210178;28;20833;-69
2022/12/02 02:28:06;;;;;;;28.87;14.97;;;;;;;-3.07;93.09;101124.91;4210862;28;21579;-67
2022/12/02 02:30:34;;;;;;;35.53;16.13;;;;;;;-3.00;92.73;101126.47;4204848;28;20304;-66
2022/12/02 02:33:02;;;;;;;34.20;16.17;;;;;;;-2.99;92.38;101124.72;4199171;28;21773;-68
2022/12/02 02:35:29;;;;;;;31.97;15.80;;;;;;;-3.01;92.59;101122.13;4210692;28;20256;-68
2022/12/02 02:37:56;;;;;;;33.67;15.93;;;;;;;-3.04;92.21;101116.19;4205224;28;20244;-67
2022/12/02 02:40:23;;;;;;;36.33;16.90;;;;;;;-3.17;93.48;101117.41;4211561;28;20675;-66
2022/12/02 02:42:52;;;;;;;36.40;16.40;;;;;;;-3.13;92.73;101116.44;4202793;28;20239;-67
2022/12/02 02:45:20;;;;;;;34.77;15.90;;;;;;;-3.17;93.42;101115.63;4202772;28;21538;-69
2022/12/02 02:47:47;;;;;;;33.53;15.73;;;;;;;-3.10;93.70;101114.56;4195699;28;20402;-68
2022/12/02 02:50:15;;;;;;;34.67;15.60;;;;;;;-3.05;93.32;101109.25;4196151;28;21692;-68
2022/12/02 02:52:42;;;;;;;33.97;16.23;;;;;;;-3.12;92.96;101113.75;4204670;28;21510;-66
2022/12/02 02:55:16;;;;;;;37.93;15.87;;;;;;;-2.99;93.06;101112.53;4195397;28;20836;-68
2022/12/02 02:57:43;;;;;;;33.27;14.83;;;;;;;-3.04;92.83;101109.22;4195214;28;20858;-70
2022/12/02 03:00:10;;;;;;;37.40;14.93;;;;;;;-3.07;92.61;101109.28;4205042;28;21844;-67
2022/12/02 03:02:37;;;;;;;39.20;15.03;;;;;;;-3.06;92.69;101102.34;4220067;28;20244;-68
2022/12/02 03:05:04;;;;;;;30.67;15.47;;;;;;;-3.03;92.60;101102.25;4199195;28;25211;-67
2022/12/02 03:07:31;;;;;;;36.00;16.37;;;;;;;-2.95;92.52;101099.44;4203694;28;21632;-68
2022/12/02 03:09:58;;;;;;;38.53;16.17;;;;;;;-3.05;91.86;101099.69;4200003;28;20454;-67
2022/12/02 03:12:25;;;;;;;37.20;16.63;;;;;;;-3.04;91.86;101095.34;4197436;28;20236;-68
2022/12/02 03:14:52;;;;;;;34.90;15.00;;;;;;;-3.10;91.66;101098.97;4197467;28;20419;-67
2022/12/02 03:17:19;;;;;;;33.63;14.40;;;;;;;-3.21;92.05;101093.19;4194867;28;20316;-68
2022/12/02 03:19:45;;;;;;;32.63;15.80;;;;;;;-3.03;91.52;101097.88;4209808;28;20229;-68
2022/12/02 03:22:12;;;;;;;37.07;16.87;;;;;;;-3.00;90.83;101092.63;4195612;28;23096;-67
2022/12/02 03:24:39;;;;;;;35.40;15.77;;;;;;;-3.04;90.14;101098.81;4198145;28;23072;-67
2022/12/02 03:27:06;;;;;;;32.70;15.97;;;;;;;-3.01;90.97;101098.72;4219854;28;20334;-67
2022/12/02 03:29:34;;;;;;;36.63;16.77;;;;;;;-3.10;90.60;101095.50;4206347;28;20236;-68
2022/12/02 03:32:00;;;;;;;40.47;18.20;;;;;;;-3.17;91.20;101099.16;4195209;28;20331;-68
2022/12/02 03:34:27;;;;;;;40.87;17.60;;;;;;;-3.16;90.78;101098.25;4208059;28;22019;-67
2022/12/02 03:36:54;;;;;;;37.63;17.83;;;;;;;-3.07;90.74;101091.06;4213664;28;20363;-69
2022/12/02 03:39:21;;;;;;;39.93;17.93;;;;;;;-2.99;90.34;101094.31;4198778;28;22604;-67
2022/12/02 03:41:48;;;;;;;33.90;16.03;;;;;;;-3.10;89.55;101096.34;4191145;28;20559;-68
2022/12/02 03:44:15;;;;;;;36.13;16.60;;;;;;;-3.17;90.72;101092.22;4197070;28;20307;-69
2022/12/02 03:46:42;;;;;;;38.43;16.67;;;;;;;-3.17;90.70;101089.59;4195523;28;20570;-68
2022/12/02 03:49:10;;;;;;;36.70;16.60;;;;;;;-3.12;90.88;101092.09;4195000;28;20589;-67
2022/12/02 03:51:36;;;;;;;39.67;17.33;;;;;;;-3.13;90.29;101093.00;4192670;28;20418;-67
2022/12/02 03:54:03;;;;;;;44.73;19.27;;;;;;;-3.17;90.25;101074.00;4194549;28;20328;-68
2022/12/02 03:56:35;;;;;;;40.17;18.23;;;;;;;-3.14;90.30;101079.09;4222303;28;21814;-67
2022/12/02 03:59:02;;;;;;;38.67;18.00;;;;;;;-3.34;90.87;101081.41;4202827;28;20234;-68
2022/12/02 04:01:28;;;;;;;40.97;18.27;;;;;;;-3.34;91.77;101086.63;4220506;28;21144;-66
2022/12/02 04:03:55;;;;;;;47.77;19.67;;;;;;;-3.36;91.45;101080.59;4217299;28;21612;-67
2022/12/02 04:06:21;;;;;;;38.43;18.03;;;;;;;-3.31;91.67;101083.94;4198240;28;20240;-67
2022/12/02 04:08:48;;;;;;;41.13;19.30;;;;;;;-3.31;91.55;101076.13;4200633;28;21301;-68
2022/12/02 04:11:15;;;;;;;46.07;21.47;;;;;;;-3.33;92.23;101077.91;4197555;28;20240;-68
2022/12/02 04:13:42;;;;;;;45.10;20.20;;;;;;;-3.41;92.41;101078.13;4198575;28;22575;-68
2022/12/02 04:16:08;;;;;;;49.17;20.13;;;;;;;-3.43;92.92;101078.16;4200060;28;20233;-68
2022/12/02 04:18:35;;;;;;;44.67;19.87;;;;;;;-3.27;91.94;101077.75;4196030;28;20382;-68
2022/12/02 04:21:01;;;;;;;44.60;19.80;;;;;;;-3.28;92.56;101076.03;4194516;28;20227;-68
2022/12/02 04:23:28;;;;;;;44.30;20.00;;;;;;;-3.15;92.06;101067.00;4198425;28;20243;-67
2022/12/02 04:25:54;;;;;;;50.17;21.37;;;;;;;-3.17;91.96;101068.78;4220798;28;23649;-67
2022/12/02 04:28:21;;;;;;;51.17;22.07;;;;;;;-3.08;91.95;101068.53;4198371;28;20620;-69
2022/12/02 04:30:47;;;;;;;54.70;21.77;;;;;;;-2.99;91.10;101063.06;4196250;28;20623;-67
2022/12/02 04:33:14;;;;;;;48.13;21.17;;;;;;;-3.08;91.28;101055.53;4191563;28;20474;-66
2022/12/02 04:35:41;;;;;;;51.90;22.23;;;;;;;-3.10;91.86;101059.06;4215397;28;20600;-69
2022/12/02 04:38:07;;;;;;;52.00;22.20;;;;;;;-3.01;92.05;101066.63;4187529;28;20238;-68
2022/12/02 04:40:37;;;;;;;54.23;22.47;;;;;;;-3.01;91.43;101061.41;4198786;28;21721;-67
2022/12/02 04:43:04;;;;;;;48.13;22.00;;;;;;;-3.06;92.42;101065.91;4189853;28;20424;-67
2022/12/02 04:45:30;;;;;;;48.00;22.17;;;;;;;-3.05;91.78;101060.63;4197961;28;20339;-68
2022/12/02 04:47:57;;;;;;;45.10;21.03;;;;;;;-3.10;92.78;101062.50;4192250;28;20229;-67
2022/12/02 04:50:24;;;;;;;47.13;20.60;;;;;;;-3.17;92.89;101066.19;4194690;28;20251;-68
2022/12/02 04:52:50;;;;;;;48.13;20.07;;;;;;;-3.17;93.58;101065.34;4192500;28;20705;-67
2022/12/02 04:55:17;;;;;;;42.23;19.17;;;;;;;-3.13;93.58;101065.22;4200970;28;20236;-69
2022/12/02 04:57:43;;;;;;;47.70;20.40;;;;;;;-3.10;93.55;101070.31;4192663;28;23742;-67
2022/12/02 05:00:10;;;;;;;49.93;20.47;;;;;;;-3.08;92.58;101062.47;4195131;28;20233;-68
2022/12/02 05:02:37;;;;;;;44.73;20.30;;;;;;;-3.10;93.18;101065.13;4209334;28;22191;-67
2022/12/02 05:05:04;;;;;;;43.97;19.17;;;;;;;-3.09;92.69;101072.06;4212271;28;20292;-66
2022/12/02 05:07:30;;;;;;;45.47;19.57;;;;;;;-3.02;92.43;101068.38;4199550;28;20228;-67
2022/12/02 05:09:57;;;;;;;44.30;20.53;;;;;;;-3.10;91.90;101077.28;4192853;28;20268;-67
2022/12/02 05:12:24;;;;;;;42.90;18.63;;;;;;;-3.14;92.28;101079.09;4191173;28;20233;-67
2022/12/02 05:14:51;;;;;;;48.63;18.50;;;;;;;-3.13;91.70;101078.22;4194548;28;20236;-68
2022/12/02 05:17:18;;;;;;;45.43;18.33;;;;;;;-3.16;92.15;101086.13;4206640;28;20235;-68
2022/12/02 05:19:45;;;;;;;41.87;16.87;;;;;;;-3.15;91.99;101073.97;4197506;28;20240;-69
2022/12/02 05:22:11;;;;;;;37.47;15.97;;;;;;;-3.29;91.97;101084.75;4195273;28;20406;-66
2022/12/02 05:24:39;;;;;;;36.13;16.20;;;;;;;-3.43;92.45;101078.16;4219457;28;21184;-68
2022/12/02 05:27:05;;;;;;;39.90;17.00;;;;;;;-3.34;92.56;101078.81;4208239;28;20305;-67
2022/12/02 05:29:32;;;;;;;41.43;17.07;;;;;;;-3.24;92.03;101077.66;4218326;28;21871;-67
2022/12/02 05:31:59;;;;;;;42.30;16.70;;;;;;;-3.29;92.14;101072.56;4197596;28;21776;-67
2022/12/02 05:34:25;;;;;;;33.83;15.70;;;;;;;-3.13;91.53;101073.03;4195055;28;20311;-68
2022/12/02 05:36:52;;;;;;;44.70;16.63;;;;;;;-3.36;92.28;101072.78;4192407;28;20712;-68
2022/12/02 05:39:18;;;;;;;43.90;16.87;;;;;;;-3.41;92.66;101071.16;4203117;28;20297;-68
2022/12/02 05:41:46;;;;;;;37.50;16.00;;;;;;;-3.35;92.97;101082.28;4191380;28;20302;-70
2022/12/02 05:44:22;;;;;;;39.20;16.77;;;;;;;-3.25;92.53;101086.38;4194372;28;20443;-69
2022/12/02 05:46:48;;;;;;;39.17;17.53;;;;;;;-3.28;92.93;101082.09;4197090;28;20355;-68
2022/12/02 05:49:21;;;;;;;39.17;16.73;;;;;;;-3.31;91.83;101083.94;4189580;28;23930;-68
2022/12/02 05:51:54;;;;;;;36.57;15.93;;;;;;;-3.28;92.09;101094.25;4195542;28;20300;-70
2022/12/02 05:54:23;;;;;;;33.47;15.33;;;;;;;-3.38;91.44;101096.25;4197294;28;20231;-68
2022/12/02 05:56:49;;;;;;;40.23;15.90;;;;;;;-3.52;91.51;101088.78;4209016;28;21846;-67
2022/12/02 05:59:20;;;;;;;41.83;15.20;;;;;;;-3.57;92.03;101095.00;4198579;28;20558;-67
2022/12/02 06:01:54;;;;;;;36.33;16.07;;;;;;;-3.49;91.36;101101.75;4210383;28;20247;-69
2022/12/02 06:04:25;;;;;;;34.37;16.03;;;;;;;-3.56;91.18;101109.72;4212313;28;22425;-66
2022/12/02 06:06:53;;;;;;;35.50;15.83;;;;;;;-3.55;90.98;101114.03;4228510;28;21412;-68
2022/12/02 06:09:24;;;;;;;38.37;14.73;;;;;;;-3.59;90.92;101108.03;4199066;28;20424;-66
2022/12/02 06:11:51;;;;;;;32.30;14.33;;;;;;;-3.57;91.72;101111.47;4207455;28;20250;-66
2022/12/02 06:14:21;;;;;;;37.97;14.43;;;;;;;-3.62;91.40;101114.19;4221517;28;20237;-67
2022/12/02 06:16:53;;;;;;;37.67;15.10;;;;;;;-3.50;91.08;101114.78;4201660;28;20236;-67
2022/12/02 06:19:28;;;;;;;37.97;16.27;;;;;;;-3.48;90.18;101111.22;4229196;28;20228;-70
2022/12/02 06:22:02;;;;;;;31.77;13.83;;;;;;;-3.51;90.59;101121.72;4222875;28;20235;-68
2022/12/02 06:24:31;;;;;;;35.20;15.10;;;;;;;-3.65;91.19;101113.41;4223614;28;22273;-69
2022/12/02 06:26:59;;;;;;;35.47;14.70;;;;;;;-3.72;91.44;101115.31;4215487;28;23653;-68
2022/12/02 06:29:27;;;;;;;33.80;14.77;;;;;;;-3.58;92.04;101109.78;4242884;28;20661;-71
2022/12/02 06:31:54;;;;;;;43.80;15.60;;;;;;;-3.58;91.18;101111.50;4217292;28;20250;-71
2022/12/02 06:34:40;;;;;;;40.87;15.57;;;;;;;-3.68;91.04;101122.13;4223103;28;20237;-71
2022/12/02 06:37:32;;;;;;;40.13;15.80;;;;;;;-3.70;91.66;101125.66;4231100;28;20232;-69
2022/12/02 06:40:00;;;;;;;34.27;15.07;;;;;;;-3.55;91.43;101124.44;4192895;28;21607;-68
2022/12/02 06:42:47;;;;;;;34.23;14.60;;;;;;;-3.47;91.06;101119.88;4203294;28;20269;-66
2022/12/02 06:45:13;;;;;;;32.73;15.50;;;;;;;-3.45;91.55;101128.50;4198946;28;20651;-70
2022/12/02 06:47:49;;;;;;;39.17;14.33;;;;;;;-3.36;91.49;101120.47;4199639;28;20229;-71
2022/12/02 06:50:26;;;;;;;35.20;14.67;;;;;;;-3.28;90.20;101125.47;4223978;28;20231;-77
2022/12/02 06:53:00;;;;;;;38.50;15.27;;;;;;;-3.38;90.28;101126.63;4227538;28;20757;-65
2022/12/02 06:55:29;;;;;;;33.30;13.30;;;;;;;-3.43;90.01;101130.19;4204013;28;20241;-65
2022/12/02 06:58:01;;;;;;;34.50;14.33;;;;;;;-3.70;90.63;101139.53;4236846;28;24112;-63
2022/12/02 07:00:28;;;;;;;31.50;14.77;;;;;;;-3.68;90.90;101139.47;4215101;28;20231;-64
2022/12/02 07:02:54;;;;;;;35.87;13.87;;;;;;;-3.55;91.09;101146.09;4210491;28;20236;-63
2022/12/02 07:05:21;;;;;;;35.27;14.67;;;;;;;-3.54;90.36;101141.75;4202896;28;20232;-65
2022/12/02 07:07:48;;;;;;;34.27;15.13;;;;;;;-3.56;90.83;101135.72;4195203;28;20352;-65
2022/12/02 07:10:26;;;;;;;33.50;14.67;;;;;;;-3.61;90.99;101141.03;4211998;28;20320;-64
2022/12/02 07:12:55;;;;;;;35.87;14.83;;;;;;;-3.47;90.75;101138.09;4213527;28;20234;-65
2022/12/02 07:15:30;;;;;;;37.47;16.10;;;;;;;-3.53;90.05;101149.53;4207274;28;20308;-64
2022/12/02 07:17:58;;;;;;;36.07;16.30;;;;;;;-3.46;90.21;101148.47;4210842;28;20677;-67
2022/12/02 07:20:37;;;;;;;39.47;17.83;;;;;;;-3.59;90.70;101141.84;4241860;28;26011;-70
2022/12/02 07:23:13;;;;;;;45.13;18.47;;;;;;;-3.72;91.22;101145.63;4219511;28;20249;-69
2022/12/02 07:25:45;;;;;;;49.70;18.80;;;;;;;-3.63;91.93;101148.03;4235342;28;20231;-69
2022/12/02 07:28:29;;;;;;;39.23;17.83;;;;;;;-3.59;91.98;101141.84;4229912;28;20420;-69
2022/12/02 07:30:57;;;;;;;43.53;18.13;;;;;;;-3.65;91.24;101137.69;4202565;28;20227;-68
2022/12/02 07:33:24;;;;;;;44.77;17.10;;;;;;;-3.63;92.31;101142.81;4215220;28;20233;-69
2022/12/02 07:35:51;;;;;;;42.63;16.93;;;;;;;-3.62;91.74;101149.75;4254362;28;20230;-67
2022/12/02 07:38:17;;;;;;;46.90;15.33;;;;;;;-3.59;91.31;101148.81;4223497;28;20358;-69
2022/12/02 07:41:04;;;;;;;41.73;15.43;;;;;;;-3.50;91.24;101148.59;4232400;28;21411;-69
2022/12/02 07:43:31;;;;;;;45.03;16.97;;;;;;;-3.38;90.81;101150.03;4209167;28;21622;-68
2022/12/02 07:45:58;;;;;;;36.37;15.27;;;;;;;-3.45;91.27;101138.91;4212406;28;22000;-69
2022/12/02 07:48:25;;;;;;;34.37;14.40;;;;;;;-3.41;90.70;101149.22;4227730;28;20293;-69
2022/12/02 07:50:52;;;;;;;42.87;16.17;;;;;;;-3.37;90.22;101144.81;4229948;28;21350;-69
2022/12/02 07:53:18;;;;;;;34.43;15.73;;;;;;;-3.38;90.43;101150.88;4229297;28;20260;-68
2022/12/02 07:55:45;;;;;;;38.50;15.47;;;;;;;-3.32;89.74;101149.88;4197449;28;20718;-69
2022/12/02 07:58:11;;;;;;;36.87;15.73;;;;;;;-3.47;90.34;101151.09;4200815;28;20317;-69
2022/12/02 08:00:38;;;;;;;42.23;16.87;;;;;;;-3.44;90.56;101144.09;4223429;28;20251;-72
2022/12/02 08:03:04;;;;;;;37.27;16.33;;;;;;;-3.64;91.47;101146.31;4212722;28;20345;-70
2022/12/02 08:05:31;;;;;;;37.77;16.60;;;;;;;-3.66;92.71;101145.50;4217856;28;20237;-67
2022/12/02 08:07:58;;;;;;;49.37;18.40;;;;;;;-3.67;92.75;101136.84;4206248;28;21882;-68
2022/12/02 08:10:24;;;;;;;46.30;18.67;;;;;;;-3.64;92.73;101141.13;4201704;28;25802;-68
2022/12/02 08:12:51;;;;;;;47.93;18.03;;;;;;;-3.69;93.08;101140.38;4211051;28;20691;-70
2022/12/02 08:15:17;;;;;;;38.60;15.73;;;;;;;-3.63;92.75;101145.41;4210540;28;20249;-69
2022/12/02 08:17:44;;;;;;;41.37;16.20;;;;;;;-3.65;92.23;101137.69;4218112;28;20290;-71
2022/12/02 08:20:11;;;;;;;43.30;16.90;;;;;;;-3.73;93.08;101136.13;4222075;28;20247;-67
2022/12/02 08:22:38;;;;;;;43.57;17.47;;;;;;;-3.67;93.26;101131.66;4207980;28;20260;-68
2022/12/02 08:25:06;;;;;;;43.87;17.33;;;;;;;-3.63;92.32;101129.81;4217740;28;20253;-70
2022/12/02 08:27:32;;;;;;;40.17;17.00;;;;;;;-3.71;92.73;101134.38;4198845;28;20270;-70
2022/12/02 08:29:59;;;;;;;44.97;18.83;;;;;;;-3.64;92.68;101130.72;4229147;28;20295;-69
2022/12/02 08:32:26;;;;;;;44.10;18.27;;;;;;;-3.65;92.58;101134.22;4207257;28;20319;-69
2022/12/02 08:34:53;;;;;;;45.63;18.10;;;;;;;-3.62;92.99;101126.34;4204621;28;20721;-67
2022/12/02 08:37:20;;;;;;;56.47;20.33;;;;;;;-3.68;93.49;101124.72;4209291;28;20505;-69
2022/12/02 08:39:46;;;;;;;45.47;19.33;;;;;;;-3.61;92.81;101128.91;4195700;28;23067;-70
2022/12/02 08:42:13;;;;;;;43.13;18.73;;;;;;;-3.72;93.16;101122.22;4195311;28;20887;-69
2022/12/02 08:44:40;;;;;;;48.53;19.83;;;;;;;-3.68;93.79;101129.94;4204296;28;21731;-70
2022/12/02 08:47:07;;;;;;;48.97;20.00;;;;;;;-3.78;93.28;101127.59;4195089;28;20581;-71
2022/12/02 08:49:34;;;;;;;52.33;21.10;;;;;;;-3.87;93.17;101126.91;4197168;28;20317;-69
2022/12/02 08:52:01;;;;;;;49.17;20.07;;;;;;;-3.69;93.63;101127.38;4184153;28;20229;-69
2022/12/02 08:54:27;;;;;;;45.40;19.37;;;;;;;-3.72;93.74;101132.63;4201335;28;20236;-74
2022/12/02 08:56:55;;;;;;;47.13;19.43;;;;;;;-3.70;92.99;101130.84;4193949;28;20596;-73
2022/12/02 08:59:22;;;;;;;41.10;17.60;;;;;;;-3.72;92.67;101135.25;4204515;28;20225;-68
2022/12/02 09:01:48;;;;;;;44.93;18.90;;;;;;;-3.80;93.72;101129.38;4199529;28;20247;-72
2022/12/02 09:04:15;;;;;;;48.63;18.87;;;;;;;-3.99;94.40;101129.81;4203543;28;20586;-70
2022/12/02 09:06:42;;;;;;;43.63;18.97;;;;;;;-3.87;94.21;101134.72;4201004;28;26810;-72
2022/12/02 09:09:09;;;;;;;46.00;19.67;;;;;;;-3.86;94.15;101135.59;4200374;28;20242;-72
2022/12/02 09:11:36;;;;;;;51.93;19.83;;;;;;;-3.72;93.81;101127.44;4195275;28;21348;-73
2022/12/02 09:14:03;;;;;;;50.10;19.00;;;;;;;-3.73;93.67;101128.34;4198070;28;25894;-73
2022/12/02 09:16:29;;;;;;;44.87;18.90;;;;;;;-3.64;93.77;101138.53;4189653;28;20915;-71
2022/12/02 09:18:57;;;;;;;47.20;19.33;;;;;;;-3.72;93.03;101137.84;4206066;28;20347;-71
2022/12/02 09:21:23;;;;;;;47.60;19.37;;;;;;;-3.76;92.90;101128.44;4231929;28;25415;-72
2022/12/02 09:23:50;;;;;;;53.57;19.77;;;;;;;-3.80;92.88;101137.19;4207940;28;20237;-71
2022/12/02 09:26:17;;;;;;;53.07;18.53;;;;;;;-3.90;94.12;101134.78;4206639;28;22361;-72
2022/12/02 09:28:45;;;;;;;49.90;18.83;;;;;;;-3.86;93.91;101131.25;4203887;28;20300;-69
2022/12/02 09:31:11;;;;;;;48.53;18.33;;;;;;;-3.82;93.68;101132.88;4185491;28;20225;-71
2022/12/02 09:33:38;;;;;;;44.13;18.07;;;;;;;-3.76;93.57;101131.88;4203443;28;20419;-71
2022/12/02 09:36:05;;;;;;;48.63;20.50;;;;;;;-3.87;94.28;101126.91;4198557;28;20283;-72
2022/12/02 09:38:31;;;;;;;48.80;20.13;;;;;;;-3.88;95.05;101122.63;4202879;28;22727;-73
2022/12/02 09:40:59;;;;;;;47.20;19.87;;;;;;;-3.80;94.34;101124.19;4213131;28;22454;-73
2022/12/02 09:43:27;;;;;;;48.47;20.20;;;;;;;-3.84;94.58;101124.25;4202654;28;20318;-71
2022/12/02 09:45:54;;;;;;;50.23;20.20;;;;;;;-3.82;93.90;101121.59;4204228;28;20331;-71
2022/12/02 09:48:21;;;;;;;50.23;19.13;;;;;;;-3.73;93.35;101128.34;4195316;28;20315;-74
2022/12/02 09:50:49;;;;;;;54.67;19.50;;;;;;;-3.82;93.77;101125.09;4201847;28;21064;-72
2022/12/02 09:53:19;;;;;;;50.17;20.23;;;;;;;-3.75;93.72;101127.53;4222158;28;20577;-73
2022/12/02 09:55:46;;;;;;;56.70;20.07;;;;;;;-3.82;93.43;101125.09;4216626;28;20662;-76
2022/12/02 09:58:20;;;;;;;57.07;21.67;;;;;;;-3.83;93.41;101125.97;4224092;28;20240;-73
2022/12/02 10:00:50;;;;;;;60.93;22.93;;;;;;;-3.99;93.78;101123.75;4208825;28;20661;-72
2022/12/02 10:03:17;;;;;;;58.93;22.13;;;;;;;-3.90;93.71;101118.34;4189680;28;20738;-70
2022/12/02 10:05:45;;;;;;;50.33;21.53;;;;;;;-3.86;93.50;101126.03;4183122;28;22220;-71
2022/12/02 10:08:19;;;;;;;53.43;20.97;;;;;;;-3.92;93.91;101122.72;4205360;28;22110;-71
2022/12/02 10:10:46;;;;;;;53.83;21.20;;;;;;;-3.89;94.13;101128.69;4204993;28;20770;-72
2022/12/02 10:13:15;;;;;;;57.70;21.00;;;;;;;-3.88;94.50;101126.97;4212921;28;20239;-73
2022/12/02 10:15:42;;;;;;;53.40;21.67;;;;;;;-3.87;94.29;101121.72;4227687;28;21323;-73
2022/12/02 10:18:17;;;;;;;51.13;21.07;;;;;;;-3.90;94.41;101124.41;4210774;28;20301;-71
2022/12/02 10:20:43;;;;;;;53.47;21.80;;;;;;;-3.79;93.45;101120.69;4212571;28;20231;-72
2022/12/02 10:23:16;;;;;;;57.83;20.97;;;;;;;-3.77;93.62;101119.78;4217750;28;20236;-72
2022/12/02 10:25:46;;;;;;;54.57;22.13;;;;;;;-4.05;93.92;101117.81;4208851;28;20829;-71
2022/12/02 10:28:25;;;;;;;54.13;21.80;;;;;;;-4.09;94.26;101112.72;4198209;28;20240;-70
2022/12/02 10:31:00;;;;;;;53.13;22.63;;;;;;;-4.02;93.83;101119.50;4205503;28;20414;-72
2022/12/02 10:33:28;;;;;;;54.73;21.87;;;;;;;-3.93;94.10;101123.63;4231328;28;22582;-71
2022/12/02 10:35:55;;;;;;;58.83;22.73;;;;;;;-3.90;94.00;101119.19;4235766;28;20227;-73
2022/12/02 10:38:40;;;;;;;55.57;21.93;;;;;;;-3.94;94.36;101119.31;4229477;28;25279;-72
2022/12/02 10:41:28;;;;;;;54.13;22.67;;;;;;;-3.97;94.11;101116.78;4213413;28;20240;-70
2022/12/02 10:43:57;;;;;;;58.37;22.33;;;;;;;-3.93;94.49;101119.28;4215325;28;20324;-70
2022/12/02 10:46:24;;;;;;;59.40;21.57;;;;;;;-4.02;93.85;101114.28;4220553;28;20432;-70
2022/12/02 10:48:51;;;;;;;50.93;21.07;;;;;;;-3.95;93.83;101115.84;4225880;28;20376;-72
2022/12/02 10:51:19;;;;;;;59.40;22.23;;;;;;;-4.06;94.50;101115.25;4227958;28;21464;-73
2022/12/02 10:53:51;;;;;;;62.77;23.63;;;;;;;-4.02;94.33;101114.28;4234382;28;20244;-71
2022/12/02 10:56:22;;;;;;;59.70;21.83;;;;;;;-4.03;94.72;101104.78;4197634;28;20238;-72
2022/12/02 10:58:50;;;;;;;56.67;22.27;;;;;;;-3.98;94.64;101110.75;4225278;28;20224;-70
2022/12/02 11:01:19;;;;;;;59.43;22.67;;;;;;;-4.00;95.06;101112.53;4207792;28;21556;-72
2022/12/02 11:03:46;;;;;;;60.47;23.53;;;;;;;-3.79;94.65;101121.56;4212022;28;20241;-68
2022/12/02 11:06:19;;;;;;;60.70;23.50;;;;;;;-3.87;94.04;101113.91;4205777;28;20232;-68
2022/12/02 11:08:48;;;;;;;59.83;23.70;;;;;;;-3.92;94.70;101117.53;4222079;28;20610;-68
2022/12/02 11:11:17;;;;;;;64.17;23.10;;;;;;;-3.87;94.63;101113.91;4222971;28;20235;-68
2022/12/02 11:13:54;;;;;;;60.70;23.37;;;;;;;-3.79;94.37;101115.47;4230256;28;20240;-70
2022/12/02 11:16:27;;;;;;;62.33;25.00;;;;;;;-3.85;93.82;101112.13;4227073;28;21817;-71